KLBB

Lubbock Preston Smith International Airport

Lubbock, Texas, USA
METAR KLBB 210353Z 10006KT 10SM SCT095 24/17 A3018 RMK AO2 SLP170 T02390167
Observed Flight Rules
Aug-21 @ 03:53 UTC (17 minutes ago) Visual Flight Rules
Wind Visibility Clouds
100° at 6 knots 10 miles
  • Scattered at 9,500' AGL
Temperatures Readings
Current 24°C / 75°F
Dewpoint 17°C / 63°F
Humidity 65%
Altimeter 30.18" Hg
Pressure 1017 hPa
Elevation 993
METAR KLBB 210353Z 10006KT 10SM SCT095 24/17 A3018 RMK AO2 SLP170 T02390167
Observed Flight Rules
Aug-21 @ 03:53 UTC
(17 minutes ago)
VFR
Wind Visibility
100° at 6 knots 10 miles
Clouds
  • Scattered at 9,500' AGL
Temperature Dewpoint
24°C / 75°F 17°C / 63°F
Humidity Altimeter Pressure
65% 30.18" Hg 1017 hPa